Time;durP1;ratioP1;P1;durP2;ratioP2;P2;SDS_P1;SDS_P2;PMS_P1;PMS_P2;Temp;Humidity;BMP_temperature;BMP_pressure;BME280_temperature;BME280_humidity;BME280_pressure;Samples;Min_cycle;Max_cycle;Signal;HPM_P1;HPM_P2
2023/07/26 07:23:08;;;;;;;13.38;10.98;;;;;;;-145.79;85.08;77173.78;5400116;27;20423;-78
2023/07/26 07:25:40;;;;;;;11.95;10.02;;;;;;;-145.79;85.48;77186.50;5377009;27;20075;-83
2023/07/26 07:28:11;;;;;;;11.93;9.30;;;;;;;-145.79;85.88;77178.03;5380004;27;20027;-73
2023/07/26 07:30:43;;;;;;;15.50;10.43;;;;;;;-145.79;86.14;77211.94;5381338;27;20035;-78
2023/07/26 07:33:16;;;;;;;11.88;9.63;;;;;;;-145.79;86.39;77205.59;5377348;27;20105;-77
2023/07/26 07:35:47;;;;;;;11.63;9.80;;;;;;;-145.79;87.33;77216.19;5385298;27;20026;-76
2023/07/26 07:38:18;;;;;;;10.77;9.43;;;;;;;-145.79;87.05;77195.00;5385073;27;20030;-77
2023/07/26 07:40:50;;;;;;;8.93;8.02;;;;;;;-145.79;85.97;77190.75;5384992;27;20022;-75
2023/07/26 07:43:21;;;;;;;9.45;8.48;;;;;;;-145.79;85.37;77182.28;5378301;27;20099;-76
2023/07/26 07:45:52;;;;;;;9.13;8.23;;;;;;;-145.79;85.21;77171.69;5375296;27;20050;-78
2023/07/26 07:48:26;;;;;;;13.10;8.48;;;;;;;-145.79;85.16;77156.84;5376125;27;20058;-78
2023/07/26 07:50:57;;;;;;;9.93;8.93;;;;;;;-145.79;85.14;77165.31;5387004;27;20031;-79
2023/07/26 07:53:29;;;;;;;10.18;8.80;;;;;;;-145.79;86.03;77169.56;5376763;27;20029;-81
2023/07/26 07:56:00;;;;;;;9.73;8.27;;;;;;;-145.79;85.70;77169.56;5378136;27;20019;-80
2023/07/26 07:58:31;;;;;;;14.30;12.90;;;;;;;-145.79;85.53;77163.19;5383867;27;20018;-80
2023/07/26 08:01:02;;;;;;;10.52;9.48;;;;;;;-145.79;85.11;77148.34;5373851;27;20039;-71
2023/07/26 08:03:34;;;;;;;11.25;8.35;;;;;;;-145.79;84.86;77114.44;5382507;27;20098;-78
2023/07/26 08:06:05;;;;;;;10.25;9.07;;;;;;;-145.79;83.54;77114.44;5376892;27;20385;-76
2023/07/26 08:08:37;;;;;;;11.43;10.25;;;;;;;-145.79;82.79;77103.84;5379242;27;20027;-77
2023/07/26 08:11:08;;;;;;;24.75;19.52;;;;;;;-145.79;81.16;77105.97;5382310;27;20027;-75
2023/07/26 08:13:39;;;;;;;10.52;8.70;;;;;;;-145.79;83.12;77091.13;5376938;27;20026;-82
2023/07/26 08:16:11;;;;;;;12.60;10.60;;;;;;;-145.79;81.88;77091.13;5367976;27;20042;-82
2023/07/26 08:18:42;;;;;;;11.95;9.52;;;;;;;-145.79;82.13;77065.69;5377008;27;20047;-78
2023/07/26 08:21:13;;;;;;;10.48;8.45;;;;;;;-145.79;79.75;77055.09;5375759;27;20108;-79
2023/07/26 08:23:45;;;;;;;10.20;7.75;;;;;;;-145.79;80.11;77033.91;5377652;27;20022;-77
2023/07/26 08:26:17;;;;;;;9.15;7.70;;;;;;;-145.79;80.04;77016.94;5381298;27;20087;-79
2023/07/26 08:28:48;;;;;;;10.18;8.98;;;;;;;-145.79;78.01;77038.16;5375969;27;20362;-81
2023/07/26 08:31:19;;;;;;;11.32;9.02;;;;;;;-145.79;78.19;77042.38;5375956;27;20399;-79
2023/07/26 08:33:51;;;;;;;7.72;6.97;;;;;;;-145.79;77.50;77021.19;5374881;27;20057;-80
2023/07/26 08:36:22;;;;;;;9.93;8.73;;;;;;;-145.79;77.94;77016.94;5360963;27;20027;-78
2023/07/26 08:38:54;;;;;;;9.55;8.10;;;;;;;-145.79;75.61;77012.72;5366165;27;20038;-78
2023/07/26 08:41:25;;;;;;;9.40;8.52;;;;;;;-145.79;74.68;76985.16;5368849;27;20035;-80
2023/07/26 08:43:59;;;;;;;11.15;10.15;;;;;;;-145.79;73.51;76970.31;5357356;27;20494;-79
2023/07/26 08:46:31;;;;;;;8.23;7.22;;;;;;;-145.79;72.97;76927.94;5359054;27;20050;-80
2023/07/26 08:49:05;;;;;;;9.32;7.28;;;;;;;-145.79;72.00;76934.28;5361239;27;20030;-80
2023/07/26 08:51:36;;;;;;;10.70;8.07;;;;;;;-145.79;71.94;76927.94;5369551;27;20050;-80
2023/07/26 08:54:08;;;;;;;9.50;8.52;;;;;;;-145.79;71.08;76932.19;5357955;27;20107;-77
2023/07/26 08:56:40;;;;;;;10.02;8.00;;;;;;;-145.79;71.57;76938.53;5362292;27;20106;-80
2023/07/26 08:59:12;;;;;;;9.32;7.57;;;;;;;-145.79;71.60;76930.06;5367944;27;20083;-80
2023/07/26 09:01:43;;;;;;;9.88;7.20;;;;;;;-145.79;70.07;76925.81;5369978;27;20030;-80
2023/07/26 09:04:15;;;;;;;7.03;6.43;;;;;;;-145.79;69.36;76904.63;5369125;27;20058;-80
2023/07/26 09:06:48;;;;;;;33.90;30.52;;;;;;;-145.79;69.16;76881.31;5367781;27;20033;-79
2023/07/26 09:09:19;;;;;;;10.82;7.45;;;;;;;-145.79;68.97;76855.88;5366110;27;20027;-77
2023/07/26 09:11:51;;;;;;;6.40;5.78;;;;;;;-145.79;65.38;76868.59;5361732;27;20038;-79
2023/07/26 09:14:27;;;;;;;7.38;6.00;;;;;;;-145.79;63.32;76868.59;5368103;27;20031;-80
2023/07/26 09:17:01;;;;;;;8.27;5.50;;;;;;;-145.79;63.52;76868.59;5362109;27;20029;-78
2023/07/26 09:19:34;;;;;;;5.82;4.97;;;;;;;-145.79;63.07;76877.06;5363338;27;20366;-79
2023/07/26 09:22:08;;;;;;;9.50;5.50;;;;;;;-145.79;63.54;76885.56;5368838;27;20081;-77
2023/07/26 09:24:40;;;;;;;6.53;5.75;;;;;;;-145.79;65.06;76898.25;5360138;27;20078;-77
2023/07/26 09:27:12;;;;;;;12.27;11.10;;;;;;;-145.79;64.14;76889.78;5368664;27;20487;-79
2023/07/26 09:29:54;;;;;;;12.55;11.32;;;;;;;-145.79;58.75;76881.31;5360925;27;20018;-74
2023/07/26 09:32:27;;;;;;;6.90;4.22;;;;;;;-145.79;59.09;76872.84;5367818;27;20026;-80
2023/07/26 09:35:04;;;;;;;6.68;5.20;;;;;;;-145.79;59.43;76881.31;5368701;27;20041;-81
2023/07/26 09:37:37;;;;;;;9.68;8.80;;;;;;;-145.79;61.13;76866.47;5370970;27;20068;-81
2023/07/26 09:40:08;;;;;;;10.27;8.70;;;;;;;-145.79;57.12;76889.78;5369813;27;20030;-80
2023/07/26 09:42:47;;;;;;;3.83;3.33;;;;;;;-145.79;56.21;76902.50;5363272;27;20036;-80
2023/07/26 09:45:19;;;;;;;5.05;3.00;;;;;;;-145.79;54.75;76904.63;5360009;27;20027;-77
2023/07/26 09:47:51;;;;;;;4.40;2.60;;;;;;;-145.79;54.85;76872.84;5359092;27;20477;-79
2023/07/26 09:50:28;;;;;;;3.17;2.28;;;;;;;-145.79;54.14;76866.47;5365293;27;20054;-80
2023/07/26 09:53:02;;;;;;;3.50;2.50;;;;;;;-145.79;54.73;76832.56;5357575;27;20034;-79
2023/07/26 09:55:33;;;;;;;2.97;2.55;;;;;;;-145.79;53.78;76821.97;5363508;27;20517;-81
2023/07/26 09:58:06;;;;;;;3.00;2.55;;;;;;;-145.79;53.65;76836.81;5360095;27;20137;-80
2023/07/26 10:00:38;;;;;;;4.28;2.83;;;;;;;-145.79;53.43;76843.16;5359937;27;20026;-80
2023/07/26 10:03:11;;;;;;;3.72;2.42;;;;;;;-145.79;53.65;76845.28;5359847;27;20034;-80
2023/07/26 10:05:46;;;;;;;3.78;3.00;;;;;;;-145.79;54.27;76849.53;5368670;27;20078;-80
2023/07/26 10:08:19;;;;;;;4.50;3.15;;;;;;;-145.79;55.25;76847.41;5358864;27;20035;-81
2023/07/26 10:10:52;;;;;;;4.40;3.42;;;;;;;-145.79;56.06;76849.53;5361316;27;20027;-80
2023/07/26 10:13:25;;;;;;;4.82;3.67;;;;;;;-145.79;57.20;76853.75;5358227;27;20124;-81
2023/07/26 10:15:58;;;;;;;4.22;3.83;;;;;;;-145.79;56.42;76855.88;5359257;27;20083;-80
2023/07/26 10:18:30;;;;;;;5.88;3.72;;;;;;;-145.79;56.92;76868.59;5358684;27;20062;-79
2023/07/26 10:21:05;;;;;;;4.57;4.05;;;;;;;-145.79;57.71;76855.88;5356062;27;20046;-80
2023/07/26 10:23:38;;;;;;;6.05;3.92;;;;;;;-145.79;58.98;76847.41;5367976;27;20031;-79
2023/07/26 10:26:11;;;;;;;5.10;4.60;;;;;;;-145.79;59.59;76834.69;5359719;27;20019;-79
2023/07/26 10:28:43;;;;;;;7.00;4.88;;;;;;;-145.79;59.38;76826.22;5355780;27;20047;-78
2023/07/26 10:31:23;;;;;;;5.20;3.92;;;;;;;-145.79;59.46;76792.31;5364816;27;20023;-79
2023/07/26 10:33:55;;;;;;;5.80;4.25;;;;;;;-145.79;58.41;76792.31;5355809;27;20051;-79
2023/07/26 10:36:33;;;;;;;7.38;4.07;;;;;;;-145.79;58.63;76773.22;5364092;27;20039;-81
2023/07/26 10:39:11;;;;;;;6.35;5.00;;;;;;;-145.79;57.84;76788.06;5361208;27;20561;-79
2023/07/26 10:41:48;;;;;;;10.80;9.80;;;;;;;-145.79;58.95;76769.00;5359506;27;20027;-79
2023/07/26 10:44:19;;;;;;;5.70;4.30;;;;;;;-145.79;57.91;76779.59;5358335;27;20027;-79
2023/07/26 10:46:59;;;;;;;4.55;3.90;;;;;;;-145.79;57.00;76796.53;5358416;27;20042;-79
2023/07/26 10:49:33;;;;;;;5.32;3.83;;;;;;;-145.79;57.41;76800.78;5363261;27;20030;-78
2023/07/26 10:52:05;;;;;;;5.45;3.92;;;;;;;-145.79;58.89;76788.06;5354854;27;20022;-79
2023/07/26 10:54:40;;;;;;;14.88;13.35;;;;;;;-145.79;58.64;76771.09;5358540;27;20060;-79
2023/07/26 10:57:26;;;;;;;6.15;4.43;;;;;;;-145.79;59.19;76747.78;5364184;27;20447;-80
2023/07/26 11:00:14;;;;;;;5.03;4.32;;;;;;;-145.79;58.98;76735.06;5357334;27;20035;-78
2023/07/26 11:02:50;;;;;;;5.45;3.63;;;;;;;-145.79;55.36;76711.75;5362223;27;20027;-79
2023/07/26 11:05:22;;;;;;;5.57;4.05;;;;;;;-145.79;54.65;76707.53;5354205;27;20495;-78
2023/07/26 11:08:07;;;;;;;4.90;3.28;;;;;;;-145.79;55.47;76669.38;5354818;27;20128;-79
2023/07/26 11:10:50;;;;;;;5.63;4.40;;;;;;;-145.79;54.49;76652.44;5360942;27;20039;-80
2023/07/26 11:13:32;;;;;;;5.40;4.53;;;;;;;-145.79;53.60;76646.06;5365757;27;20041;-79
2023/07/26 11:16:04;;;;;;;6.30;5.43;;;;;;;-145.79;53.67;76650.31;5358505;27;20027;-80
2023/07/26 11:18:40;;;;;;;4.80;4.03;;;;;;;-145.79;54.24;76635.47;5361507;27;20031;-80
2023/07/26 11:21:15;;;;;;;7.47;5.82;;;;;;;-145.79;53.91;76637.59;5354981;27;20126;-78
2023/07/26 11:23:46;;;;;;;4.65;4.20;;;;;;;-145.79;54.14;76643.94;5357207;27;20355;-78
2023/07/26 11:26:18;;;;;;;5.53;4.45;;;;;;;-145.79;54.21;76650.31;5357653;27;20029;-79
2023/07/26 11:28:49;;;;;;;5.57;4.00;;;;;;;-145.79;54.32;76639.72;5358593;27;20029;-78
2023/07/26 11:31:22;;;;;;;4.97;3.65;;;;;;;-145.79;53.87;76631.22;5364926;27;20026;-78
2023/07/26 11:33:53;;;;;;;5.60;3.75;;;;;;;-145.79;53.68;76635.47;5352837;27;20069;-79
2023/07/26 11:36:25;;;;;;;5.97;3.38;;;;;;;-145.79;52.43;76654.53;5354136;27;20016;-79
2023/07/26 11:38:56;;;;;;;5.97;3.80;;;;;;;-145.79;51.08;76637.59;5357581;27;20037;-78
2023/07/26 11:41:27;;;;;;;4.85;3.78;;;;;;;-145.79;51.72;76614.28;5358070;27;20046;-76
2023/07/26 11:43:59;;;;;;;4.90;3.35;;;;;;;-145.79;51.34;76584.59;5366695;27;20030;-76
2023/07/26 11:46:30;;;;;;;5.43;3.72;;;;;;;-145.79;48.05;76599.44;5361821;27;20111;-76
2023/07/26 11:49:02;;;;;;;4.15;3.30;;;;;;;-145.79;48.45;76603.69;5366956;27;20026;-78
2023/07/26 11:51:33;;;;;;;5.85;2.97;;;;;;;-145.79;48.08;76614.28;5359191;27;20016;-77
2023/07/26 11:54:10;;;;;;;3.13;2.60;;;;;;;-145.79;47.38;76614.28;5363310;27;20683;-77
2023/07/26 11:56:42;;;;;;;5.38;3.20;;;;;;;-145.79;45.78;76580.38;5358646;27;20023;-78
2023/07/26 11:59:14;;;;;;;3.30;2.65;;;;;;;-145.79;45.42;76588.84;5358171;27;20031;-78
2023/07/26 12:01:47;;;;;;;2.95;2.65;;;;;;;-145.79;46.36;76580.38;5357548;27;20019;-79
2023/07/26 12:04:18;;;;;;;4.10;3.22;;;;;;;-145.79;45.68;76603.69;5362594;27;20384;-79
2023/07/26 12:06:50;;;;;;;4.72;3.20;;;;;;;-145.79;45.46;76597.31;5364958;27;20023;-77
2023/07/26 12:09:21;;;;;;;3.83;2.53;;;;;;;-145.79;45.37;76563.41;5362789;27;20411;-78
2023/07/26 12:11:53;;;;;;;4.05;3.30;;;;;;;-145.79;45.32;76557.06;5365967;27;20420;-78
2023/07/26 12:14:24;;;;;;;3.58;2.60;;;;;;;-145.79;43.48;76580.38;5361520;27;20023;-78
2023/07/26 12:16:56;;;;;;;4.45;2.88;;;;;;;-145.79;43.81;76584.59;5362507;27;20445;-79
2023/07/26 12:19:27;;;;;;;3.85;2.30;;;;;;;-145.79;43.70;76576.13;5361819;27;20022;-75
2023/07/26 12:21:59;;;;;;;4.72;2.70;;;;;;;-145.79;43.54;76576.13;5369272;27;20150;-76
2023/07/26 12:24:30;;;;;;;4.20;2.80;;;;;;;-145.79;43.51;76565.53;5359142;27;20482;-76
2023/07/26 12:27:04;;;;;;;3.67;2.80;;;;;;;-145.79;43.76;76550.69;5357938;27;20030;-76
2023/07/26 12:29:38;;;;;;;3.03;2.72;;;;;;;-145.79;43.55;76557.06;5360067;27;20547;-74
2023/07/26 12:32:13;;;;;;;4.45;2.75;;;;;;;-145.79;43.01;76544.34;5368963;27;20030;-75
2023/07/26 12:34:45;;;;;;;3.78;3.30;;;;;;;-145.79;44.04;76552.81;5360457;27;20023;-74
2023/07/26 12:37:16;;;;;;;5.68;4.00;;;;;;;-145.79;43.86;76571.91;5369524;27;20038;-71
2023/07/26 12:39:49;;;;;;;5.22;3.42;;;;;;;-145.79;44.13;76595.22;5367390;27;20110;-72
2023/07/26 12:42:20;;;;;;;3.65;2.95;;;;;;;-145.79;45.09;76610.03;5356762;27;20505;-76
2023/07/26 12:44:52;;;;;;;4.97;3.00;;;;;;;-145.79;44.93;76614.28;5360423;27;20023;-77
2023/07/26 12:47:23;;;;;;;4.72;3.17;;;;;;;-145.79;45.31;76620.63;5361406;27;20015;-77
2023/07/26 12:49:54;;;;;;;6.22;3.33;;;;;;;-145.79;46.03;76643.94;5364170;27;20037;-76
2023/07/26 12:52:26;;;;;;;6.55;3.90;;;;;;;-145.79;46.00;76627.00;5363076;27;20121;-76
2023/07/26 12:54:57;;;;;;;9.57;7.93;;;;;;;-145.79;46.33;76569.78;5364704;27;20023;-77
2023/07/26 12:57:28;;;;;;;5.50;4.40;;;;;;;-145.79;45.84;76538.00;5369204;27;20023;-77
2023/07/26 13:00:00;;;;;;;8.43;5.13;;;;;;;-145.79;45.82;76542.22;5359747;27;20106;-76
2023/07/26 13:02:31;;;;;;;5.65;3.85;;;;;;;-145.79;46.23;76544.34;5357250;27;20027;-77
2023/07/26 13:05:03;;;;;;;3.88;3.05;;;;;;;-145.79;45.76;76535.88;5360442;27;20183;-75
2023/07/26 13:07:34;;;;;;;6.47;3.28;;;;;;;-145.79;45.39;76504.09;5369805;27;20050;-76
2023/07/26 13:10:06;;;;;;;5.85;3.70;;;;;;;-145.79;44.27;76499.84;5359172;27;20130;-77
2023/07/26 13:12:37;;;;;;;4.90;3.50;;;;;;;-145.79;44.62;76487.13;5362810;27;20090;-78
2023/07/26 13:15:08;;;;;;;5.95;3.25;;;;;;;-145.79;45.06;76493.50;5360355;27;20125;-77
2023/07/26 13:17:40;;;;;;;8.75;5.95;;;;;;;-145.79;45.04;76514.69;5356020;27;20110;-77
2023/07/26 13:20:12;;;;;;;6.15;3.70;;;;;;;-145.79;45.13;76504.09;5363412;27;20023;-77
2023/07/26 13:22:44;;;;;;;6.45;3.42;;;;;;;-145.79;44.59;76476.53;5368972;27;20065;-78
2023/07/26 13:25:15;;;;;;;6.80;2.80;;;;;;;-145.79;43.68;76463.81;5360288;27;20035;-77
2023/07/26 13:27:46;;;;;;;4.82;3.03;;;;;;;-145.79;43.46;76457.47;5364052;27;20026;-77
2023/07/26 13:30:18;;;;;;;4.68;3.22;;;;;;;-145.79;43.73;76436.28;5369076;27;20664;-78
2023/07/26 13:32:49;;;;;;;6.05;4.10;;;;;;;-145.79;43.42;76436.28;5368989;27;20038;-77
2023/07/26 13:35:21;;;;;;;5.85;3.67;;;;;;;-145.79;43.51;76444.75;5360305;27;20027;-78
2023/07/26 13:37:52;;;;;;;6.90;3.20;;;;;;;-145.79;43.17;76459.56;5361231;27;20373;-78
2023/07/26 13:40:23;;;;;;;8.35;3.60;;;;;;;-145.79;43.50;76478.66;5360300;27;20031;-77
2023/07/26 13:42:55;;;;;;;6.38;3.28;;;;;;;-145.79;43.59;76491.38;5357352;27;20031;-76
2023/07/26 13:45:26;;;;;;;3.47;2.97;;;;;;;-145.79;43.35;76495.59;5363598;27;20203;-78
2023/07/26 13:47:57;;;;;;;7.90;7.30;;;;;;;-145.79;43.14;76470.19;5368361;27;20465;-77
2023/07/26 13:50:29;;;;;;;4.47;3.70;;;;;;;-145.79;42.86;76444.75;5360480;27;20110;-78
2023/07/26 13:53:00;;;;;;;4.82;3.45;;;;;;;-145.79;42.12;76446.88;5359079;27;20033;-79
2023/07/26 13:55:31;;;;;;;3.35;2.85;;;;;;;-145.79;42.27;76459.56;5360348;27;20029;-77
2023/07/26 13:58:03;;;;;;;3.92;2.60;;;;;;;-145.79;42.85;76487.13;5357356;27;20474;-70
2023/07/26 14:00:34;;;;;;;15.35;11.50;;;;;;;-145.79;43.60;76495.59;5355157;27;20038;-72
2023/07/26 14:03:05;;;;;;;7.25;3.53;;;;;;;-145.79;44.37;76495.59;5364039;27;20488;-77
2023/07/26 14:05:37;;;;;;;4.88;2.90;;;;;;;-145.79;43.54;76497.72;5368468;27;20107;-78
2023/07/26 14:08:08;;;;;;;6.18;2.75;;;;;;;-145.79;43.76;76499.84;5358990;27;20154;-77
2023/07/26 14:10:41;;;;;;;7.15;5.90;;;;;;;-145.79;43.07;76457.47;5362536;27;20076;-77
2023/07/26 14:13:12;;;;;;;5.28;3.20;;;;;;;-145.79;41.07;76444.75;5358031;27;20030;-78
2023/07/26 14:15:43;;;;;;;3.72;3.38;;;;;;;-145.79;41.35;76421.44;5359386;27;20430;-78
2023/07/26 14:18:15;;;;;;;5.13;3.08;;;;;;;-145.79;40.89;76398.13;5352328;27;20035;-77
2023/07/26 14:20:49;;;;;;;3.08;2.40;;;;;;;-145.79;39.95;76406.59;5359240;27;20023;-77
2023/07/26 14:23:20;;;;;;;3.90;2.80;;;;;;;-145.79;38.98;76419.31;5365535;27;20432;-74
2023/07/26 14:25:51;;;;;;;2.42;2.20;;;;;;;-145.79;39.62;76376.94;5361651;27;20090;-71
2023/07/26 14:28:23;;;;;;;4.25;2.65;;;;;;;-145.79;39.16;76351.50;5358663;27;20529;-76
2023/07/26 14:30:55;;;;;;;2.35;2.03;;;;;;;-145.79;37.44;76364.22;5358824;27;20022;-76
2023/07/26 14:33:26;;;;;;;11.15;8.45;;;;;;;-145.79;37.17;76387.53;5367157;27;20580;-73
2023/07/26 14:35:57;;;;;;;5.75;5.00;;;;;;;-145.79;37.04;76376.94;5366954;27;20041;-75
2023/07/26 14:38:29;;;;;;;2.80;2.45;;;;;;;-145.79;36.82;76362.09;5356996;27;20015;-77
2023/07/26 14:41:00;;;;;;;3.83;2.50;;;;;;;-145.79;37.17;76328.19;5365092;27;20031;-75
2023/07/26 14:43:32;;;;;;;3.47;2.42;;;;;;;-145.79;37.02;76309.13;5354007;27;20020;-75
2023/07/26 14:46:03;;;;;;;4.05;2.67;;;;;;;-145.79;37.24;76300.66;5359187;27;20074;-75
2023/07/26 14:48:34;;;;;;;4.38;2.95;;;;;;;-145.79;38.76;76292.16;5357792;27;20456;-75
2023/07/26 14:51:06;;;;;;;4.43;2.78;;;;;;;-145.79;37.91;76328.19;5367899;27;20037;-75
2023/07/26 14:53:37;;;;;;;6.93;3.05;;;;;;;-145.79;38.18;76315.47;5355040;27;20025;-74
2023/07/26 14:56:09;;;;;;;5.70;4.03;;;;;;;-145.79;37.71;76317.59;5363810;27;20022;-75
2023/07/26 14:58:40;;;;;;;4.88;2.83;;;;;;;-145.79;38.53;76287.94;5358839;27;20069;-75
2023/07/26 15:01:11;;;;;;;4.13;3.15;;;;;;;-145.79;38.49;76262.50;5360627;27;20027;-75
2023/07/26 15:03:43;;;;;;;5.78;2.47;;;;;;;-145.79;37.65;76294.28;5366142;27;20462;-74
2023/07/26 15:06:14;;;;;;;23.20;20.83;;;;;;;-145.79;36.28;76326.06;5366691;27;20030;-75
2023/07/26 15:08:46;;;;;;;2.50;2.05;;;;;;;-145.79;36.37;76304.88;5365939;27;20050;-74
2023/07/26 15:11:17;;;;;;;4.55;2.80;;;;;;;-145.79;36.77;76300.66;5365270;27;20452;-76
2023/07/26 15:13:48;;;;;;;2.72;2.45;;;;;;;-145.79;35.37;76353.63;5358756;27;20015;-74
2023/07/26 15:16:20;;;;;;;2.40;2.15;;;;;;;-145.79;36.57;76340.91;5366672;27;20034;-75
2023/07/26 15:18:51;;;;;;;3.22;2.10;;;;;;;-145.79;36.39;76326.06;5355303;27;20422;-75
2023/07/26 15:21:22;;;;;;;4.20;2.33;;;;;;;-145.79;36.97;76304.88;5365787;27;20118;-75
2023/07/26 15:23:54;;;;;;;3.60;2.08;;;;;;;-145.79;35.80;76330.31;5365707;27;20133;-75
2023/07/26 15:26:25;;;;;;;2.60;2.10;;;;;;;-145.79;36.01;76317.59;5364704;27;20054;-76
2023/07/26 15:28:56;;;;;;;5.75;5.15;;;;;;;-145.79;35.34;76330.31;5359644;27;20035;-72
2023/07/26 15:31:28;;;;;;;3.10;2.30;;;;;;;-145.79;35.56;76372.69;5353602;27;20027;-74
2023/07/26 15:33:59;;;;;;;3.30;1.90;;;;;;;-145.79;36.59;76326.06;5358101;27;20030;-75
2023/07/26 15:36:30;;;;;;;3.75;2.22;;;;;;;-145.79;36.04;76332.44;5364341;27;20022;-75
2023/07/26 15:39:02;;;;;;;3.13;2.30;;;;;;;-145.79;36.05;76336.66;5358698;27;20033;-75
2023/07/26 15:41:34;;;;;;;3.20;2.42;;;;;;;-145.79;36.09;76319.72;5361137;27;20040;-76
2023/07/26 15:44:05;;;;;;;2.70;2.47;;;;;;;-145.79;35.46;76347.25;5368252;27;20538;-75
2023/07/26 15:46:36;;;;;;;4.40;2.63;;;;;;;-145.79;35.49;76332.44;5368680;27;20105;-75
2023/07/26 15:49:08;;;;;;;6.03;3.42;;;;;;;-145.79;35.96;76319.72;5359151;27;20027;-75
2023/07/26 15:51:39;;;;;;;3.65;2.38;;;;;;;-145.79;35.68;76334.56;5361072;27;20023;-76
2023/07/26 15:54:11;;;;;;;4.68;2.28;;;;;;;-145.79;36.21;76309.13;5368658;27;20433;-74
2023/07/26 15:56:43;;;;;;;2.63;2.17;;;;;;;-145.79;35.36;76298.53;5362927;27;20042;-74
2023/07/26 15:59:15;;;;;;;3.45;2.47;;;;;;;-145.79;35.26;76304.88;5362321;27;20144;-73
2023/07/26 16:01:47;;;;;;;2.22;2.03;;;;;;;-145.79;35.82;76300.66;5362760;27;20083;-72
2023/07/26 16:04:19;;;;;;;4.25;2.13;;;;;;;-145.79;35.39;76317.59;5366731;27;20023;-71
2023/07/26 16:06:51;;;;;;;3.67;2.28;;;;;;;-145.79;35.63;76323.97;5357425;27;20513;-72
2023/07/26 16:09:22;;;;;;;3.08;2.15;;;;;;;-145.79;36.01;76302.75;5362628;27;20019;-72
2023/07/26 16:11:53;;;;;;;5.63;2.75;;;;;;;-145.79;35.45;76309.13;5362678;27;20041;-72
2023/07/26 16:14:25;;;;;;;3.70;2.95;;;;;;;-145.79;35.62;76334.56;5357646;27;20023;-72
2023/07/26 16:16:56;;;;;;;3.30;2.70;;;;;;;-145.79;35.78;76302.75;5358264;27;20059;-73
2023/07/26 16:19:27;;;;;;;3.70;2.95;;;;;;;-145.79;35.40;76292.16;5370439;27;20054;-72
2023/07/26 16:21:59;;;;;;;3.67;2.42;;;;;;;-145.79;35.10;76296.41;5362123;27;20494;-73
2023/07/26 16:24:30;;;;;;;3.70;2.20;;;;;;;-145.79;35.06;76311.25;5361628;27;20027;-74
2023/07/26 16:27:01;;;;;;;3.45;2.25;;;;;;;-145.79;35.79;76313.34;5361476;27;20027;-72
2023/07/26 16:29:33;;;;;;;3.22;2.67;;;;;;;-145.79;35.71;76287.94;5359426;27;20047;-72
2023/07/26 16:32:04;;;;;;;3.10;2.42;;;;;;;-145.79;35.58;76270.97;5364561;27;20029;-72
2023/07/26 16:34:36;;;;;;;2.72;2.50;;;;;;;-145.79;35.70;76260.38;5368382;27;20031;-72
2023/07/26 16:37:07;;;;;;;2.70;2.47;;;;;;;-145.79;35.39;76268.84;5370563;27;20099;-72
2023/07/26 16:39:38;;;;;;;3.10;2.70;;;;;;;-145.79;35.50;76285.81;5359295;27;20458;-72
2023/07/26 16:42:10;;;;;;;3.17;2.65;;;;;;;-145.79;35.40;76309.13;5356954;27;20058;-72
2023/07/26 16:44:41;;;;;;;3.13;2.60;;;;;;;-145.79;35.21;76309.13;5367339;27;20022;-72
2023/07/26 16:47:12;;;;;;;3.65;2.42;;;;;;;-145.79;35.66;76296.41;5370300;27;20035;-72
2023/07/26 16:49:44;;;;;;;3.10;2.60;;;;;;;-145.79;35.65;76302.75;5360591;27;20025;-72
2023/07/26 16:52:15;;;;;;;3.22;2.83;;;;;;;-145.79;35.26;76298.53;5359927;27;20030;-72
2023/07/26 16:54:47;;;;;;;4.53;2.78;;;;;;;-145.79;35.31;76268.84;5358635;27;20027;-72
